CCA233 ZSHC-ZSQD
Flight info
| Callsign | CCA233 |
|---|---|
| Flight time | N/A |
| Altitude | 371000 |
| Route | SUPAR9D SUPAR B221 IDVEL IDV81A |
| Aircraft | A359/H-SDE2E3GHIJ3J4J5LM1ORWXY/LB1D1 |
Departure
| Time | 2026-04-30 14:45 |
|---|---|
| Airport | Hangzhou Xiaoshan International Airport (ZSHC) |
Arrival
| Time | N/A |
|---|---|
| Airport | Qingdao Jiaodong International Airport (ZSQD) |
| Time | Latitude | Longitude | Altitude | Speed | Heading |
|---|---|---|---|---|---|
| 2026-04-30 14:03 | 30.24420 | 120.43243 | 54 ft | 0 kts | 199° |
| 2026-04-30 14:26 | 30.24442 | 120.43252 | 52 ft | 2 kts | 199° |
| 2026-04-30 14:26 | 30.24457 | 120.43258 | 54 ft | 2 kts | 199° |
| 2026-04-30 14:26 | 30.24486 | 120.43254 | 52 ft | 2 kts | 111° |
| 2026-04-30 14:27 | 30.24490 | 120.43236 | 52 ft | 2 kts | 97° |
| 2026-04-30 14:27 | 30.24490 | 120.43218 | 52 ft | 2 kts | 76° |
| 2026-04-30 14:27 | 30.24489 | 120.43213 | 52 ft | 0 kts | 58° |
| 2026-04-30 14:32 | 30.24489 | 120.43214 | 52 ft | 1 kts | 59° |
| 2026-04-30 14:32 | 30.24502 | 120.43240 | 52 ft | 6 kts | 61° |
| 2026-04-30 14:33 | 30.24528 | 120.43298 | 52 ft | 8 kts | 69° |
| 2026-04-30 14:33 | 30.24476 | 120.43373 | 52 ft | 9 kts | 149° |
| 2026-04-30 14:33 | 30.24408 | 120.43417 | 52 ft | 13 kts | 151° |
| 2026-04-30 14:34 | 30.24318 | 120.43471 | 53 ft | 16 kts | 154° |
| 2026-04-30 14:34 | 30.24248 | 120.43510 | 54 ft | 0 kts | 154° |
| 2026-04-30 14:36 | 30.24243 | 120.43513 | 54 ft | 4 kts | 153° |
| 2026-04-30 14:36 | 30.24179 | 120.43550 | 52 ft | 15 kts | 154° |
| 2026-04-30 14:36 | 30.24064 | 120.43617 | 54 ft | 22 kts | 152° |
| 2026-04-30 14:36 | 30.23912 | 120.43706 | 54 ft | 27 kts | 152° |
| 2026-04-30 14:37 | 30.23761 | 120.43795 | 54 ft | 25 kts | 151° |
| 2026-04-30 14:37 | 30.23611 | 120.43883 | 57 ft | 20 kts | 153° |
| 2026-04-30 14:37 | 30.23507 | 120.43942 | 54 ft | 11 kts | 160° |
| 2026-04-30 14:37 | 30.23445 | 120.43914 | 56 ft | 9 kts | 244° |
| 2026-04-30 14:38 | 30.23403 | 120.43826 | 52 ft | 17 kts | 242° |
| 2026-04-30 14:38 | 30.23340 | 120.43682 | 52 ft | 23 kts | 241° |
| 2026-04-30 14:38 | 30.23260 | 120.43498 | 53 ft | 29 kts | 244° |
| 2026-04-30 14:38 | 30.23171 | 120.43304 | 55 ft | 26 kts | 242° |
| 2026-04-30 14:39 | 30.23160 | 120.43279 | 56 ft | 0 kts | 243° |
| 2026-04-30 14:40 | 30.23153 | 120.43263 | 61 ft | 6 kts | 243° |
| 2026-04-30 14:40 | 30.23124 | 120.43213 | 53 ft | 8 kts | 222° |
| 2026-04-30 14:40 | 30.23066 | 120.43201 | 53 ft | 9 kts | 182° |
| 2026-04-30 14:40 | 30.23019 | 120.43158 | 54 ft | 9 kts | 239° |
| 2026-04-30 14:41 | 30.22986 | 120.43084 | 58 ft | 12 kts | 242° |
| 2026-04-30 14:41 | 30.22944 | 120.42992 | 56 ft | 15 kts | 242° |
| 2026-04-30 14:41 | 30.22892 | 120.42877 | 55 ft | 17 kts | 242° |
| 2026-04-30 14:41 | 30.22833 | 120.42746 | 53 ft | 20 kts | 243° |
| 2026-04-30 14:42 | 30.22765 | 120.42596 | 55 ft | 22 kts | 242° |
| 2026-04-30 14:42 | 30.22691 | 120.42429 | 53 ft | 24 kts | 243° |
| 2026-04-30 14:42 | 30.22611 | 120.42248 | 54 ft | 26 kts | 243° |
| 2026-04-30 14:42 | 30.22537 | 120.42080 | 56 ft | 19 kts | 243° |
| 2026-04-30 14:43 | 30.22482 | 120.41956 | 54 ft | 11 kts | 243° |
| 2026-04-30 14:43 | 30.22474 | 120.41937 | 52 ft | 0 kts | 243° |
| 2026-04-30 14:43 | 30.22451 | 120.41905 | 53 ft | 9 kts | 213° |
| 2026-04-30 14:44 | 30.22373 | 120.41927 | 51 ft | 15 kts | 160° |
| 2026-04-30 14:44 | 30.22319 | 120.42028 | 55 ft | 18 kts | 71° |
| 2026-04-30 14:44 | 30.22414 | 120.42244 | 56 ft | 61 kts | 63° |
| 2026-04-30 14:44 | 30.22717 | 120.42938 | 52 ft | 133 kts | 63° |
| 2026-04-30 14:45 | 30.23212 | 120.44061 | 404 ft | 163 kts | 64° |
| 2026-04-30 14:45 | 30.23908 | 120.45053 | 1274 ft | 164 kts | 49° |
| 2026-04-30 14:45 | 30.24442 | 120.46327 | 1516 ft | 194 kts | 86° |
| 2026-04-30 14:45 | 30.24103 | 120.47932 | 1749 ft | 220 kts | 111° |
| 2026-04-30 14:46 | 30.23633 | 120.49717 | 2130 ft | 242 kts | 102° |
| 2026-04-30 14:46 | 30.23353 | 120.51690 | 2688 ft | 255 kts | 97° |
| 2026-04-30 14:46 | 30.23154 | 120.53759 | 3321 ft | 264 kts | 95° |
| 2026-04-30 14:46 | 30.22983 | 120.55897 | 3997 ft | 270 kts | 94° |
| 2026-04-30 14:47 | 30.22676 | 120.58064 | 4710 ft | 276 kts | 102° |
| 2026-04-30 14:47 | 30.22127 | 120.60214 | 5403 ft | 281 kts | 105° |
| 2026-04-30 14:47 | 30.21523 | 120.62380 | 6084 ft | 285 kts | 105° |
| 2026-04-30 14:47 | 30.20909 | 120.64575 | 6756 ft | 289 kts | 104° |
| 2026-04-30 14:48 | 30.20290 | 120.66807 | 7349 ft | 294 kts | 104° |
| 2026-04-30 14:48 | 30.19664 | 120.69080 | 7958 ft | 299 kts | 104° |
| 2026-04-30 14:48 | 30.18936 | 120.71370 | 8546 ft | 307 kts | 113° |
| 2026-04-30 14:48 | 30.17887 | 120.73541 | 9160 ft | 313 kts | 120° |
| 2026-04-30 14:49 | 30.16723 | 120.75694 | 9651 ft | 316 kts | 121° |
| 2026-04-30 14:49 | 30.15545 | 120.77845 | 9831 ft | 318 kts | 121° |
| 2026-04-30 14:49 | 30.14358 | 120.80015 | 9838 ft | 320 kts | 121° |
| 2026-04-30 14:49 | 30.12952 | 120.82004 | 9838 ft | 322 kts | 140° |
| 2026-04-30 14:50 | 30.08879 | 120.83937 | 9966 ft | 318 kts | 165° |
| 2026-04-30 14:50 | 30.06933 | 120.85164 | 10132 ft | 325 kts | 138° |
| 2026-04-30 14:51 | 30.05296 | 120.90026 | 10590 ft | 346 kts | 81° |
| 2026-04-30 14:51 | 30.05982 | 120.92689 | 10818 ft | 350 kts | 58° |
| 2026-04-30 14:51 | 30.08903 | 120.97274 | 11392 ft | 362 kts | 43° |
| 2026-04-30 14:52 | 30.10590 | 120.99468 | 11815 ft | 367 kts | 43° |
| 2026-04-30 14:52 | 30.13929 | 121.04039 | 12727 ft | 377 kts | 45° |
| 2026-04-30 14:52 | 30.15554 | 121.06439 | 13183 ft | 382 kts | 46° |
| 2026-04-30 14:53 | 30.18748 | 121.11376 | 14035 ft | 390 kts | 47° |
| 2026-04-30 14:53 | 30.20359 | 121.13914 | 14442 ft | 393 kts | 47° |
| 2026-04-30 14:54 | 30.23605 | 121.19046 | 15307 ft | 398 kts | 47° |
| 2026-04-30 14:54 | 30.26863 | 121.24300 | 16085 ft | 407 kts | 49° |
| 2026-04-30 14:55 | 30.30055 | 121.29859 | 16835 ft | 417 kts | 50° |
| 2026-04-30 14:55 | 30.31618 | 121.32633 | 17223 ft | 420 kts | 50° |
| 2026-04-30 14:55 | 30.34846 | 121.38348 | 18021 ft | 427 kts | 50° |
| 2026-04-30 14:56 | 30.38130 | 121.44127 | 18783 ft | 433 kts | 49° |
| 2026-04-30 14:56 | 30.41464 | 121.49978 | 19486 ft | 438 kts | 49° |
| 2026-04-30 14:57 | 30.43148 | 121.52933 | 19817 ft | 441 kts | 49° |
| 2026-04-30 14:57 | 30.46576 | 121.58953 | 20371 ft | 450 kts | 49° |
| 2026-04-30 14:58 | 30.50031 | 121.65051 | 21035 ft | 455 kts | 48° |
| 2026-04-30 14:58 | 30.51773 | 121.68129 | 21378 ft | 458 kts | 48° |
| 2026-04-30 14:58 | 30.55284 | 121.74336 | 22149 ft | 461 kts | 48° |
| 2026-04-30 14:59 | 30.58818 | 121.80595 | 22798 ft | 466 kts | 48° |
| 2026-04-30 15:00 | 30.64230 | 121.90185 | 23614 ft | 477 kts | 49° |
| 2026-04-30 15:00 | 30.67847 | 121.96631 | 24151 ft | 482 kts | 48° |
| 2026-04-30 15:01 | 30.71517 | 122.03166 | 24921 ft | 481 kts | 49° |
| 2026-04-30 15:01 | 30.72751 | 122.05369 | 25156 ft | 482 kts | 49° |
| 2026-04-30 15:01 | 30.77141 | 122.12926 | 25626 ft | 485 kts | 43° |
| 2026-04-30 15:02 | 30.79419 | 122.15765 | 25928 ft | 475 kts | 33° |
| 2026-04-30 15:02 | 30.81998 | 122.18075 | 26239 ft | 462 kts | 22° |
| 2026-04-30 15:03 | 30.90663 | 122.22034 | 27335 ft | 442 kts | 5° |
| 2026-04-30 15:03 | 30.96603 | 122.23954 | 28016 ft | 445 kts | 4° |
| 2026-04-30 15:04 | 31.02605 | 122.26030 | 28714 ft | 456 kts | 8° |
| 2026-04-30 15:04 | 31.11622 | 122.30030 | 30015 ft | 464 kts | 11° |
| 2026-04-30 15:05 | 31.20718 | 122.34163 | 30971 ft | 473 kts | 10° |
| 2026-04-30 15:06 | 31.26951 | 122.36934 | 31257 ft | 486 kts | 10° |
| 2026-04-30 15:06 | 31.33299 | 122.39757 | 32041 ft | 488 kts | 11° |
| 2026-04-30 15:07 | 31.39719 | 122.42362 | 32527 ft | 484 kts | 4° |
| 2026-04-30 15:07 | 31.46269 | 122.43118 | 32987 ft | 466 kts | 347° |
| 2026-04-30 15:08 | 31.52440 | 122.41647 | 33439 ft | 451 kts | 333° |
| 2026-04-30 15:08 | 31.61219 | 122.37745 | 34366 ft | 450 kts | 331° |
| 2026-04-30 15:09 | 31.67048 | 122.35025 | 34932 ft | 451 kts | 331° |
| 2026-04-30 15:09 | 31.72829 | 122.32354 | 35826 ft | 443 kts | 331° |
| 2026-04-30 15:10 | 31.78551 | 122.29626 | 36312 ft | 444 kts | 329° |
| 2026-04-30 15:11 | 31.90037 | 122.24059 | 37205 ft | 449 kts | 332° |
| 2026-04-30 15:11 | 31.95876 | 122.21454 | 37205 ft | 449 kts | 332° |
| 2026-04-30 15:13 | 32.10451 | 122.14885 | 37200 ft | 449 kts | 332° |
| 2026-04-30 15:14 | 32.30823 | 122.05609 | 37193 ft | 446 kts | 332° |
| 2026-04-30 15:17 | 32.56705 | 121.93775 | 37189 ft | 443 kts | 332° |
| 2026-04-30 15:19 | 32.79617 | 121.83233 | 37176 ft | 442 kts | 333° |